Vamp — WDD2421 — position and weather

sailwx.info

Track history (hours):
 
Tides and Currents Weather Stations Pressure Air Temp Water Temp Dewpoint Dewpoint Depression Visibility Wind Speed Wind Dir Waves Ship Positions

Vamp

Owner: Sitar, Leonard J, Holmdel, NJ. More information available from US FCC via Universal Licensing System and Coast Guard Vessel Documentation Center.

Last reported at 2015-Jul-04 05:30 UTC. Time now 2015-Jul-04 07:02 UTC.
Position N 40°25' W 074°02'.

Length 14 m.

Type: Sailing vessel. MMSI: 367115110.

Date/timePositionNaut miles runAvg speedWind from/ knotsBaromVisibWave heightAir tempDewpointWater temp
2015-Jul-04 05:30N 40°25' W 074°02'0 0.0
2015-Jul-04 04:33N 40°25' W 074°02'0 0.0
2015-Jul-04 03:27N 40°25' W 074°02'0 0.0
2015-Jul-04 02:33N 40°25' W 074°02'0 0.0
2015-Jul-04 01:33N 40°25' W 074°02'0 0.0
2015-Jul-04 00:33N 40°25' W 074°02'  
2015-Jun-28 01:31N 40°25' W 073°26'9 9.3
2015-Jun-28 00:34N 40°29' W 073°17'10 9.6
2015-Jun-27 23:33N 40°33' W 073°05'9 8.9
2015-Jun-27 22:34N 40°36' W 072°54'8 8.3
2015-Jun-27 21:34N 40°39' W 072°44'9 8.3
2015-Jun-27 20:32N 40°41' W 072°33'8 7.8
2015-Jun-27 19:34N 40°44' W 072°23'8 8.5
2015-Jun-27 18:34N 40°48' W 072°14'9 8.9
2015-Jun-27 17:33N 40°54' W 072°05'9 8.6
2015-Jun-27 16:33N 40°58' W 071°55'9 8.9
2015-Jun-27 15:33N 41°04' W 071°46'9 8.9
2015-Jun-27 14:33N 41°11' W 071°38'3 2.6
2015-Jun-27 13:33N 41°11' W 071°34'0 0.0
2015-Jun-26 20:27N 41°11' W 071°34'0 0.0
2015-Jun-26 19:33N 41°11' W 071°34'0 0.0
2015-Jun-26 18:33N 41°11' W 071°34'2 2.4
2015-Jun-26 17:34N 41°11' W 071°38'0 0.3
2015-Jun-26 16:33N 41°11' W 071°38'3 0.1
2015-Jun-25 20:11N 41°11' W 071°34'1 2.4
2015-Jun-25 19:34N 41°12' W 071°36'2 2.0
2015-Jun-25 18:34N 41°11' W 071°38'1 1.3
2015-Jun-25 17:33N 41°12' W 071°37'0 0.1
2015-Jun-25 16:34N 41°12' W 071°37'1 0.7
2015-Jun-25 15:33N 41°11' W 071°37'2 2.1
2015-Jun-25 14:32N 41°11' W 071°34'0 0.0
2015-Jun-24 20:33N 41°11' W 071°34'2 2.3
2015-Jun-24 19:34N 41°12' W 071°37'1 0.5
2015-Jun-24 18:34N 41°12' W 071°37'0 0.5
2015-Jun-24 17:34N 41°12' W 071°37'1 0.6
2015-Jun-24 16:33N 41°12' W 071°38'1 1.2
2015-Jun-24 15:33N 41°12' W 071°39'4 3.6
2015-Jun-24 14:33N 41°11' W 071°34'0 0.0
2015-Jun-24 13:33N 41°11' W 071°34'  
Track history (hours):
 
Tides and Currents Weather Stations Pressure Air Temp Water Temp Dewpoint Dewpoint Depression Visibility Wind Speed Wind Dir Waves Ship Positions

Vamp

Owner: Sitar, Leonard J, Holmdel, NJ. More information available from US FCC via Universal Licensing System and Coast Guard Vessel Documentation Center.

Last reported at 2015-Jul-04 05:30 UTC. Time now 2015-Jul-04 07:02 UTC.
Position N 40°25' W 074°02'.

Length 14 m.

Type: Sailing vessel. MMSI: 367115110.

Date/timePositionNaut miles runAvg speedWind from/ knotsBaromVisibWave heightAir tempDewpointWater temp
2015-Jul-04 05:30N 40°25' W 074°02'0 0.0
2015-Jul-04 04:33N 40°25' W 074°02'0 0.0
2015-Jul-04 03:27N 40°25' W 074°02'0 0.0
2015-Jul-04 02:33N 40°25' W 074°02'0 0.0
2015-Jul-04 01:33N 40°25' W 074°02'0 0.0
2015-Jul-04 00:33N 40°25' W 074°02'  
2015-Jun-28 01:31N 40°25' W 073°26'9 9.3
2015-Jun-28 00:34N 40°29' W 073°17'10 9.6
2015-Jun-27 23:33N 40°33' W 073°05'9 8.9
2015-Jun-27 22:34N 40°36' W 072°54'8 8.3
2015-Jun-27 21:34N 40°39' W 072°44'9 8.3
2015-Jun-27 20:32N 40°41' W 072°33'8 7.8
2015-Jun-27 19:34N 40°44' W 072°23'8 8.5
2015-Jun-27 18:34N 40°48' W 072°14'9 8.9
2015-Jun-27 17:33N 40°54' W 072°05'9 8.6
2015-Jun-27 16:33N 40°58' W 071°55'9 8.9
2015-Jun-27 15:33N 41°04' W 071°46'9 8.9
2015-Jun-27 14:33N 41°11' W 071°38'3 2.6
2015-Jun-27 13:33N 41°11' W 071°34'0 0.0
2015-Jun-26 20:27N 41°11' W 071°34'0 0.0
2015-Jun-26 19:33N 41°11' W 071°34'0 0.0
2015-Jun-26 18:33N 41°11' W 071°34'2 2.4
2015-Jun-26 17:34N 41°11' W 071°38'0 0.3
2015-Jun-26 16:33N 41°11' W 071°38'3 0.1
2015-Jun-25 20:11N 41°11' W 071°34'1 2.4
2015-Jun-25 19:34N 41°12' W 071°36'2 2.0
2015-Jun-25 18:34N 41°11' W 071°38'1 1.3
2015-Jun-25 17:33N 41°12' W 071°37'0 0.1
2015-Jun-25 16:34N 41°12' W 071°37'1 0.7
2015-Jun-25 15:33N 41°11' W 071°37'2 2.1
2015-Jun-25 14:32N 41°11' W 071°34'0 0.0
2015-Jun-24 20:33N 41°11' W 071°34'2 2.3
2015-Jun-24 19:34N 41°12' W 071°37'1 0.5
2015-Jun-24 18:34N 41°12' W 071°37'0 0.5
2015-Jun-24 17:34N 41°12' W 071°37'1 0.6
2015-Jun-24 16:33N 41°12' W 071°38'1 1.2
2015-Jun-24 15:33N 41°12' W 071°39'4 3.6
2015-Jun-24 14:33N 41°11' W 071°34'0 0.0
2015-Jun-24 13:33N 41°11' W 071°34'  

Dump ship's entire track history